createdAt,value
2022-10-19T00:01:26.646Z,53.34
2022-10-19T00:03:56.227Z,53.52
2022-10-19T00:06:35.458Z,53.34
2022-10-19T00:09:18.275Z,53.40
2022-10-19T00:11:49.907Z,53.34
2022-10-19T00:14:21.894Z,53.27
2022-10-19T00:16:52.473Z,53.36
2022-10-19T00:19:26.704Z,53.38
2022-10-19T00:21:55.748Z,53.37
2022-10-19T00:24:24.333Z,53.40
2022-10-19T00:26:53.093Z,53.35
2022-10-19T00:29:21.707Z,53.43
2022-10-19T00:31:51.653Z,53.46
2022-10-19T00:34:20.234Z,53.39
2022-10-19T00:36:49.174Z,53.37
2022-10-19T00:39:18.707Z,53.24
2022-10-19T00:41:48.336Z,53.12
2022-10-19T00:44:16.755Z,53.46
2022-10-19T00:46:49.224Z,53.26
2022-10-19T00:49:27.882Z,53.25
2022-10-19T00:51:58.793Z,53.18
2022-10-19T00:54:27.384Z,53.01
2022-10-19T00:56:56.534Z,52.88
2022-10-19T00:59:25.734Z,53.12
2022-10-19T01:01:54.677Z,52.98
2022-10-19T01:04:24.158Z,53.05
2022-10-19T01:06:54.092Z,53.02
2022-10-19T01:09:25.622Z,53.07
2022-10-19T01:12:26.837Z,53.16
2022-10-19T01:15:04.094Z,53.22
2022-10-19T01:17:54.448Z,53.12
2022-10-19T01:21:09.724Z,53.17
2022-10-19T01:23:56.666Z,53.34
2022-10-19T01:27:08.014Z,53.23
2022-10-19T01:29:58.105Z,53.11
2022-10-19T01:32:57.406Z,53.09
2022-10-19T01:35:58.600Z,53.12
2022-10-19T01:38:51.375Z,52.89
2022-10-19T01:41:42.517Z,53.18
2022-10-19T01:44:19.655Z,52.76
2022-10-19T01:46:59.015Z,53.12
2022-10-19T01:49:30.327Z,53.11
2022-10-19T01:52:02.734Z,53.17
2022-10-19T01:54:35.985Z,53.16
2022-10-19T01:57:06.985Z,53.09
2022-10-19T01:59:35.947Z,53.00
2022-10-19T02:02:10.755Z,53.02
2022-10-19T02:04:39.276Z,53.17
2022-10-19T02:07:08.262Z,53.10
2022-10-19T02:09:37.035Z,53.00
2022-10-19T02:12:09.815Z,52.85
2022-10-19T02:14:43.014Z,53.01
2022-10-19T02:17:19.875Z,52.78
2022-10-19T02:19:48.666Z,52.64
2022-10-19T02:22:17.566Z,52.76
2022-10-19T02:24:46.287Z,52.85
2022-10-19T02:27:15.176Z,52.70
2022-10-19T02:29:43.796Z,52.83
2022-10-19T02:32:13.635Z,52.90
2022-10-19T02:34:42.539Z,52.80
2022-10-19T02:37:11.456Z,52.65
2022-10-19T02:39:40.195Z,52.69
2022-10-19T02:42:19.284Z,52.82
2022-10-19T02:45:07.875Z,52.89
2022-10-19T02:47:50.165Z,52.72
2022-10-19T02:50:18.873Z,52.55
2022-10-19T02:52:47.625Z,52.65
2022-10-19T02:55:16.315Z,52.92
2022-10-19T02:57:45.904Z,52.83
2022-10-19T03:00:14.976Z,52.84
2022-10-19T03:02:44.166Z,52.65
2022-10-19T03:05:12.667Z,52.64
2022-10-19T03:07:42.564Z,52.60
2022-10-19T03:10:11.117Z,52.55
2022-10-19T03:12:39.896Z,52.50
2022-10-19T03:15:10.765Z,52.45
2022-10-19T03:17:39.666Z,52.69
2022-10-19T03:20:09.197Z,52.44
2022-10-19T03:22:38.106Z,52.50
2022-10-19T03:25:07.416Z,52.39
2022-10-19T03:27:36.415Z,52.64
2022-10-19T03:30:05.745Z,52.61
2022-10-19T03:32:34.564Z,52.60
2022-10-19T03:35:03.098Z,52.60
2022-10-19T03:37:32.016Z,52.52
2022-10-19T03:40:01.207Z,52.54
2022-10-19T03:42:30.133Z,52.40
2022-10-19T03:44:59.047Z,52.56
2022-10-19T03:47:27.854Z,52.58
2022-10-19T03:49:56.394Z,52.75
2022-10-19T03:52:25.215Z,52.63
2022-10-19T03:54:53.865Z,52.76
2022-10-19T03:57:22.702Z,52.70
2022-10-19T03:59:51.226Z,52.82
2022-10-19T04:02:20.154Z,52.83
2022-10-19T04:04:48.654Z,52.77
2022-10-19T04:07:17.416Z,52.82
2022-10-19T04:09:46.058Z,53.06
2022-10-19T04:12:14.996Z,52.91
2022-10-19T04:14:56.758Z,52.86
2022-10-19T04:17:26.909Z,52.85
2022-10-19T04:19:55.445Z,52.84
2022-10-19T04:22:24.164Z,52.92
2022-10-19T04:24:53.815Z,52.92
2022-10-19T04:27:22.675Z,52.99
2022-10-19T04:29:51.232Z,52.88
2022-10-19T04:32:20.034Z,52.89
2022-10-19T04:34:48.494Z,52.86
2022-10-19T04:37:17.387Z,52.77
2022-10-19T04:39:45.904Z,52.67
2022-10-19T04:42:14.846Z,52.62
2022-10-19T04:44:44.023Z,52.77
2022-10-19T04:47:12.735Z,52.66
2022-10-19T04:49:41.225Z,52.57
2022-10-19T04:52:10.091Z,52.50
2022-10-19T04:54:38.605Z,52.59
2022-10-19T04:57:07.344Z,52.65
2022-10-19T04:59:35.939Z,52.52
2022-10-19T05:02:04.646Z,52.80
2022-10-19T05:04:33.254Z,52.80
2022-10-19T05:07:01.954Z,52.64
2022-10-19T05:09:30.437Z,52.63
2022-10-19T05:11:59.479Z,52.61
2022-10-19T05:17:02.043Z,52.86
2022-10-19T05:19:31.027Z,52.71
2022-10-19T05:22:00.549Z,52.71
2022-10-19T05:24:32.972Z,52.66
2022-10-19T05:27:01.814Z,52.53
2022-10-19T05:29:30.413Z,52.66
2022-10-19T05:31:59.834Z,52.42
2022-10-19T05:34:28.384Z,52.47
2022-10-19T05:36:57.184Z,52.42
2022-10-19T05:39:26.104Z,52.55
2022-10-19T05:41:54.895Z,52.76
2022-10-19T05:44:24.073Z,52.68
2022-10-19T05:46:53.347Z,52.33
2022-10-19T05:49:22.542Z,52.53
2022-10-19T05:51:51.545Z,52.58
2022-10-19T05:54:21.853Z,52.54
2022-10-19T05:56:52.944Z,52.39
2022-10-19T05:59:22.058Z,52.47
2022-10-19T06:01:51.247Z,52.78
2022-10-19T06:04:20.366Z,52.94
2022-10-19T06:06:49.497Z,52.84
2022-10-19T06:09:18.058Z,52.71
2022-10-19T06:11:46.866Z,52.73
2022-10-19T06:14:16.379Z,52.76
2022-10-19T06:16:46.352Z,52.69
2022-10-19T06:19:15.253Z,52.63
2022-10-19T06:21:46.107Z,52.60
2022-10-19T06:24:15.202Z,52.51
2022-10-19T06:26:44.003Z,52.71
2022-10-19T06:29:13.026Z,52.65
2022-10-19T06:31:41.923Z,52.76
2022-10-19T06:34:10.471Z,52.76
2022-10-19T06:36:39.246Z,52.54
2022-10-19T06:39:07.716Z,52.55
2022-10-19T06:41:36.414Z,52.44
2022-10-19T06:44:20.087Z,52.58
2022-10-19T06:46:48.894Z,52.25
2022-10-19T06:49:17.333Z,52.50
2022-10-19T06:51:46.301Z,52.49
2022-10-19T06:54:14.873Z,52.61
2022-10-19T06:56:43.725Z,52.55
2022-10-19T06:59:14.854Z,52.43
2022-10-19T07:01:44.055Z,52.55
2022-10-19T07:04:12.539Z,52.53
2022-10-19T07:06:41.463Z,52.64
2022-10-19T07:09:10.036Z,52.66
2022-10-19T07:11:42.376Z,52.51
2022-10-19T07:14:14.795Z,52.49
2022-10-19T07:16:43.594Z,52.59
2022-10-19T07:19:13.938Z,52.64
2022-10-19T07:21:44.347Z,52.91
2022-10-19T07:24:13.115Z,52.77
2022-10-19T07:26:42.122Z,53.10
2022-10-19T07:29:10.815Z,53.36
2022-10-19T07:31:39.705Z,53.10
2022-10-19T07:34:11.785Z,53.17
2022-10-19T07:36:45.002Z,53.16
2022-10-19T07:39:13.687Z,53.17
2022-10-19T07:41:42.474Z,53.31
2022-10-19T07:44:14.833Z,53.27
2022-10-19T07:46:45.635Z,53.17
2022-10-19T07:49:16.958Z,53.16
2022-10-19T07:51:47.066Z,53.56
2022-10-19T07:54:15.724Z,53.71
2022-10-19T07:56:44.494Z,53.67
2022-10-19T07:59:15.226Z,53.47
2022-10-19T08:01:45.285Z,53.28
2022-10-19T08:07:02.688Z,53.21
2022-10-19T08:09:52.108Z,53.37
2022-10-19T08:12:20.044Z,53.29
2022-10-19T08:14:48.594Z,53.20
2022-10-19T08:17:17.843Z,53.15
2022-10-19T08:19:47.315Z,52.99
2022-10-19T08:22:16.233Z,53.01
2022-10-19T08:24:44.695Z,53.34
2022-10-19T08:27:15.046Z,52.95
2022-10-19T08:29:43.646Z,53.05
2022-10-19T08:32:12.451Z,52.85
2022-10-19T08:34:41.557Z,52.82
2022-10-19T08:37:25.639Z,52.87
2022-10-19T08:39:54.709Z,52.83
2022-10-19T08:42:48.515Z,52.74
2022-10-19T08:45:27.554Z,52.60
2022-10-19T08:48:16.873Z,52.60
2022-10-19T08:50:46.363Z,52.63
2022-10-19T08:53:27.960Z,52.34
2022-10-19T08:56:49.405Z,52.52
2022-10-19T08:59:31.323Z,52.51
2022-10-19T09:02:08.784Z,52.43
2022-10-19T09:04:43.115Z,52.16
2022-10-19T09:07:45.901Z,52.07
2022-10-19T09:10:15.103Z,52.09
2022-10-19T09:13:21.282Z,52.04
2022-10-19T09:15:51.894Z,51.79
2022-10-19T09:18:29.955Z,51.82
2022-10-19T09:21:17.256Z,51.61
2022-10-19T09:23:55.499Z,51.76
2022-10-19T09:26:29.315Z,51.53
2022-10-19T09:29:44.793Z,51.65
2022-10-19T09:32:33.273Z,51.70
2022-10-19T09:35:22.787Z,51.41
2022-10-19T09:37:51.653Z,51.34
2022-10-19T09:40:29.274Z,51.49
2022-10-19T09:42:59.128Z,51.39
2022-10-19T09:45:46.954Z,51.31
2022-10-19T09:48:36.874Z,51.35
2022-10-19T09:51:13.294Z,51.36
2022-10-19T09:54:00.154Z,51.25
2022-10-19T09:56:29.057Z,51.32
2022-10-19T09:58:59.237Z,51.20
2022-10-19T10:01:42.917Z,51.12
2022-10-19T10:04:17.802Z,51.18
2022-10-19T10:06:48.840Z,51.22
2022-10-19T10:09:19.604Z,51.15
2022-10-19T10:11:50.381Z,51.17
2022-10-19T10:14:27.434Z,51.39
2022-10-19T10:16:58.165Z,51.25
2022-10-19T10:19:29.875Z,51.35
2022-10-19T10:21:59.214Z,51.09
2022-10-19T10:24:30.276Z,51.29
2022-10-19T10:27:01.863Z,51.09
2022-10-19T10:29:36.001Z,51.24
2022-10-19T10:32:20.675Z,51.14
2022-10-19T10:35:02.487Z,51.14
2022-10-19T10:37:43.274Z,51.28
2022-10-19T10:40:35.353Z,51.00
2022-10-19T10:43:13.187Z,51.06
2022-10-19T10:45:47.724Z,50.97
2022-10-19T10:48:32.933Z,51.11
2022-10-19T10:51:02.447Z,51.17
2022-10-19T10:53:43.914Z,51.14
2022-10-19T10:56:34.583Z,51.09
2022-10-19T10:59:11.977Z,51.04
2022-10-19T11:01:45.510Z,51.36
2022-10-19T11:04:24.706Z,51.32
2022-10-19T11:07:13.193Z,51.24
2022-10-19T11:09:57.607Z,51.21
2022-10-19T11:13:11.853Z,51.00
2022-10-19T11:15:59.267Z,51.02
2022-10-19T11:18:35.458Z,51.28
2022-10-19T11:21:59.113Z,51.00
2022-10-19T11:24:51.943Z,50.97
2022-10-19T11:28:00.158Z,51.10
2022-10-19T11:30:29.114Z,51.19
2022-10-19T11:33:15.825Z,51.18
2022-10-19T11:35:54.404Z,50.97
2022-10-19T11:38:58.783Z,50.42
2022-10-19T11:41:59.864Z,50.80
2022-10-19T11:44:52.032Z,50.75
2022-10-19T11:48:00.162Z,50.73
2022-10-19T11:50:32.613Z,50.19
2022-10-19T11:53:23.551Z,50.90
2022-10-19T11:56:07.434Z,50.86
2022-10-19T11:58:57.305Z,50.81
2022-10-19T12:01:51.112Z,50.72
2022-10-19T12:05:05.195Z,50.49
2022-10-19T12:08:02.624Z,50.42
2022-10-19T12:11:19.050Z,50.48
2022-10-19T12:13:55.814Z,50.18
2022-10-19T12:16:31.715Z,50.32
2022-10-19T12:19:01.273Z,50.44
2022-10-19T12:21:38.945Z,50.43
2022-10-19T12:24:16.035Z,50.26
2022-10-19T12:26:44.956Z,50.21
2022-10-19T12:29:37.074Z,49.60
2022-10-19T12:32:06.246Z,49.80
2022-10-19T12:35:08.231Z,49.90
2022-10-19T12:38:05.868Z,49.56
2022-10-19T12:41:00.386Z,49.27
2022-10-19T12:43:56.948Z,49.68
2022-10-19T12:46:53.074Z,49.98
2022-10-19T12:49:29.934Z,49.81
2022-10-19T12:52:01.943Z,49.38
2022-10-19T12:54:36.146Z,48.65
2022-10-19T12:57:22.725Z,48.83
2022-10-19T13:00:01.645Z,49.07
2022-10-19T13:02:35.877Z,47.91
2022-10-19T13:05:05.266Z,47.62
2022-10-19T13:07:35.401Z,47.98
2022-10-19T13:10:06.568Z,48.39
2022-10-19T13:12:46.837Z,48.03
2022-10-19T13:15:34.608Z,48.42
2022-10-19T13:18:13.724Z,48.37
2022-10-19T13:20:52.974Z,47.64
2022-10-19T13:23:27.427Z,47.67
2022-10-19T13:26:30.626Z,47.13
2022-10-19T13:28:59.407Z,47.26
2022-10-19T13:31:31.236Z,47.59
2022-10-19T13:33:59.913Z,47.33
2022-10-19T13:36:28.818Z,46.95
2022-10-19T13:39:00.447Z,46.69
2022-10-19T13:41:38.998Z,46.55
2022-10-19T13:44:18.734Z,46.61
2022-10-19T13:46:53.763Z,46.78
2022-10-19T13:49:58.789Z,46.87
2022-10-19T13:53:11.086Z,47.04
2022-10-19T13:55:54.195Z,47.03
2022-10-19T13:58:47.205Z,47.37
2022-10-19T14:02:13.164Z,46.83
2022-10-19T14:04:50.783Z,46.43
2022-10-19T14:07:27.074Z,46.61
2022-10-19T14:10:08.975Z,46.30
2022-10-19T14:12:40.015Z,46.00
2022-10-19T14:15:30.677Z,45.68
2022-10-19T14:18:01.296Z,45.52
2022-10-19T14:20:33.964Z,45.44
2022-10-19T14:23:20.495Z,45.88
2022-10-19T14:25:57.455Z,46.35
2022-10-19T14:28:26.655Z,46.12
2022-10-19T14:31:04.945Z,45.91
2022-10-19T14:33:38.615Z,45.99
2022-10-19T14:36:24.315Z,46.11
2022-10-19T14:38:56.536Z,45.97
2022-10-19T14:41:28.306Z,45.87
2022-10-19T14:43:57.564Z,46.35
2022-10-19T14:46:31.187Z,46.29
2022-10-19T14:49:02.779Z,45.71
2022-10-19T14:51:54.834Z,46.19
2022-10-19T14:54:29.324Z,46.40
2022-10-19T14:57:15.328Z,46.74
2022-10-19T14:59:57.766Z,46.86
2022-10-19T15:02:58.459Z,47.16
2022-10-19T15:05:30.295Z,46.83
2022-10-19T15:08:06.438Z,46.93
2022-10-19T15:13:22.845Z,47.00
2022-10-19T15:15:53.476Z,46.99
2022-10-19T15:18:47.786Z,46.71
2022-10-19T15:21:20.393Z,45.88
2022-10-19T15:23:53.023Z,45.85
2022-10-19T15:26:27.711Z,46.32
2022-10-19T15:29:08.915Z,45.90
2022-10-19T15:31:37.616Z,45.89
2022-10-19T15:34:06.514Z,45.94
2022-10-19T15:36:35.105Z,46.15
2022-10-19T15:39:18.560Z,46.24
2022-10-19T15:41:54.104Z,46.55
2022-10-19T15:44:33.321Z,46.67
2022-10-19T15:47:19.443Z,46.64
2022-10-19T15:49:56.404Z,46.62
2022-10-19T15:52:34.175Z,46.58
2022-10-19T15:55:03.197Z,47.10
2022-10-19T15:57:49.995Z,47.25
2022-10-19T16:00:20.455Z,47.52
2022-10-19T16:02:49.005Z,47.53
2022-10-19T16:05:17.975Z,47.88
2022-10-19T16:07:46.832Z,48.03
2022-10-19T16:10:22.392Z,48.09
2022-10-19T16:12:51.069Z,48.29
2022-10-19T16:15:25.139Z,48.29
2022-10-19T16:17:56.767Z,48.29
2022-10-19T16:20:26.416Z,48.40
2022-10-19T16:22:55.176Z,48.57
2022-10-19T16:25:24.068Z,48.84
2022-10-19T16:27:52.598Z,48.85
2022-10-19T16:30:21.437Z,48.98
2022-10-19T16:32:50.065Z,49.19
2022-10-19T16:35:18.832Z,49.16
2022-10-19T16:37:47.305Z,49.50
2022-10-19T16:40:16.150Z,49.50
2022-10-19T16:42:44.714Z,49.49
2022-10-19T16:45:13.395Z,49.59
2022-10-19T16:47:42.034Z,49.71
2022-10-19T16:50:11.095Z,49.82
2022-10-19T16:52:39.754Z,50.04
2022-10-19T16:55:08.966Z,50.15
2022-10-19T16:57:37.675Z,50.16
2022-10-19T17:00:09.643Z,50.48
2022-10-19T17:02:39.851Z,50.58
2022-10-19T17:05:11.814Z,50.52
2022-10-19T17:07:42.826Z,50.51
2022-10-19T17:10:11.743Z,50.63
2022-10-19T17:12:41.089Z,50.61
2022-10-19T17:15:40.948Z,50.37
2022-10-19T17:17:59.902Z,50.65
2022-10-19T17:20:28.633Z,50.35
2022-10-19T17:22:57.209Z,50.40
2022-10-19T17:25:25.974Z,50.35
2022-10-19T17:27:54.554Z,50.46
2022-10-19T17:30:23.367Z,50.47
2022-10-19T17:32:52.008Z,50.67
2022-10-19T17:35:20.824Z,50.48
2022-10-19T17:37:49.454Z,50.48
2022-10-19T17:40:18.505Z,50.47
2022-10-19T17:42:47.216Z,50.59
2022-10-19T17:45:16.184Z,50.74
2022-10-19T17:47:44.983Z,50.67
2022-10-19T17:50:13.933Z,50.55
2022-10-19T17:52:42.835Z,50.71
2022-10-19T17:55:13.348Z,50.87
2022-10-19T17:57:42.273Z,50.79
2022-10-19T18:00:12.326Z,50.58
2022-10-19T18:02:41.156Z,51.05
2022-10-19T18:05:10.365Z,50.92
2022-10-19T18:07:39.075Z,51.12
2022-10-19T18:10:08.747Z,51.17
2022-10-19T18:12:37.297Z,51.23
2022-10-19T18:15:06.835Z,51.11
2022-10-19T18:17:35.699Z,51.17
2022-10-19T18:20:05.811Z,51.31
2022-10-19T18:22:38.037Z,51.41
2022-10-19T19:32:22.226Z,54.86
2022-10-19T19:34:54.698Z,54.80
2022-10-19T19:37:25.141Z,54.96
2022-10-19T19:39:54.771Z,54.84
2022-10-19T19:42:27.743Z,54.76
2022-10-19T19:44:57.594Z,54.87
2022-10-19T19:47:26.862Z,54.43
2022-10-19T19:49:57.115Z,54.10
2022-10-19T19:52:26.459Z,53.92
2022-10-19T19:54:56.511Z,53.82
2022-10-19T19:57:26.978Z,53.70
2022-10-19T19:59:58.514Z,53.88
2022-10-19T20:02:27.235Z,53.53
2022-10-19T20:04:56.815Z,53.25
2022-10-19T20:07:27.050Z,53.46
2022-10-19T20:09:56.375Z,53.32
2022-10-19T20:12:25.229Z,53.31
2022-10-19T20:14:54.570Z,53.15
2022-10-19T20:17:25.283Z,53.12
2022-10-19T20:19:54.205Z,53.13
2022-10-19T20:22:25.290Z,53.16
2022-10-19T20:24:54.429Z,52.94
2022-10-19T20:27:22.990Z,52.99
2022-10-19T20:29:52.974Z,52.91
2022-10-19T20:32:21.496Z,52.91
2022-10-19T20:34:50.295Z,52.93
2022-10-19T20:37:20.120Z,52.73
2022-10-19T20:39:49.162Z,52.85
2022-10-19T20:42:18.773Z,52.69
2022-10-19T20:44:47.563Z,52.55
2022-10-19T20:47:16.156Z,52.52
2022-10-19T20:49:45.062Z,52.43
2022-10-19T20:52:13.552Z,52.36
2022-10-19T20:54:42.275Z,52.35
2022-10-19T20:57:11.274Z,52.46
2022-10-19T20:59:39.984Z,52.36
2022-10-19T21:02:10.464Z,52.35
2022-10-19T21:04:39.432Z,52.31
2022-10-19T21:08:46.809Z,52.26
2022-10-19T22:28:57.198Z,50.74
2022-10-19T22:31:26.926Z,50.68
2022-10-19T22:33:55.723Z,50.74
2022-10-19T22:36:24.539Z,50.53
2022-10-19T22:38:53.108Z,50.46
2022-10-19T22:41:21.897Z,50.57
2022-10-19T22:43:50.498Z,50.29
2022-10-19T22:46:19.418Z,50.25
2022-10-19T22:48:47.930Z,50.31
2022-10-19T22:51:16.747Z,50.49
2022-10-19T22:53:45.378Z,50.33
2022-10-19T22:56:14.179Z,50.40
2022-10-19T22:58:42.700Z,50.32
2022-10-19T23:01:14.051Z,50.24
2022-10-19T23:03:42.933Z,50.27
2022-10-19T23:06:13.782Z,50.28
2022-10-19T23:08:43.600Z,50.27
2022-10-19T23:11:12.732Z,50.20
2022-10-19T23:13:41.635Z,50.13
2022-10-19T23:16:10.754Z,50.02
2022-10-19T23:18:40.744Z,50.24
2022-10-19T23:21:13.584Z,50.09
2022-10-19T23:23:42.344Z,50.08
2022-10-19T23:26:19.355Z,49.89
2022-10-19T23:28:49.748Z,49.98
2022-10-19T23:31:25.073Z,49.87
2022-10-19T23:33:54.320Z,49.87
2022-10-19T23:36:27.311Z,49.93
2022-10-19T23:38:56.895Z,50.10
2022-10-19T23:41:25.764Z,50.36
2022-10-19T23:43:54.431Z,50.02
2022-10-19T23:46:23.173Z,50.05
2022-10-19T23:48:51.712Z,50.07
2022-10-19T23:51:21.313Z,49.81
2022-10-19T23:53:50.990Z,49.95
2022-10-19T23:56:28.191Z,49.87
2022-10-19T23:58:56.909Z,49.83
